createdAt,value
2023-05-06T00:01:19.637Z,2.50
2023-05-06T00:03:47.131Z,2.80
2023-05-06T00:06:14.107Z,2.70
2023-05-06T00:08:40.810Z,2.60
2023-05-06T00:11:07.599Z,2.70
2023-05-06T00:13:34.477Z,2.50
2023-05-06T00:16:01.154Z,2.60
2023-05-06T00:18:27.927Z,2.70
2023-05-06T00:20:55.425Z,3.00
2023-05-06T00:23:22.108Z,2.80
2023-05-06T00:25:48.975Z,2.50
2023-05-06T00:28:15.652Z,2.70
2023-05-06T00:30:42.317Z,3.10
2023-05-06T00:33:09.062Z,2.70
2023-05-06T00:35:35.941Z,3.00
2023-05-06T00:38:12.105Z,2.60
2023-05-06T00:40:39.953Z,2.80
2023-05-06T00:43:06.903Z,2.50
2023-05-06T00:45:33.977Z,2.60
2023-05-06T00:48:01.059Z,3.00
2023-05-06T00:50:31.105Z,3.00
2023-05-06T00:52:59.297Z,3.00
2023-05-06T00:55:30.499Z,3.30
2023-05-06T00:57:57.818Z,3.50
2023-05-06T01:00:25.338Z,3.50
2023-05-06T01:02:52.388Z,3.50
2023-05-06T01:05:22.397Z,3.30
2023-05-06T01:08:15.057Z,3.30
2023-05-06T01:10:53.266Z,3.10
2023-05-06T01:13:35.453Z,3.40
2023-05-06T01:16:04.975Z,3.50
2023-05-06T01:18:32.633Z,3.30
2023-05-06T01:21:01.340Z,3.40
2023-05-06T01:23:28.146Z,4.10
2023-05-06T01:25:54.988Z,3.80
2023-05-06T01:28:21.709Z,3.70
2023-05-06T01:31:03.083Z,3.60
2023-05-06T01:36:42.844Z,4.00
2023-05-06T01:39:17.700Z,4.60
2023-05-06T01:41:55.224Z,4.40
2023-05-06T01:44:22.804Z,4.40
2023-05-06T01:46:51.787Z,4.00
2023-05-06T01:49:20.470Z,3.90
2023-05-06T01:51:52.030Z,3.80
2023-05-06T01:54:19.060Z,3.70
2023-05-06T01:56:46.098Z,4.10
2023-05-06T01:59:12.920Z,3.80
2023-05-06T02:01:39.720Z,4.00
2023-05-06T02:04:06.644Z,4.20
2023-05-06T02:06:33.404Z,4.00
2023-05-06T02:09:00.019Z,3.90
2023-05-06T02:11:26.723Z,3.80
2023-05-06T02:13:54.328Z,3.90
2023-05-06T02:16:21.353Z,3.90
2023-05-06T02:18:47.930Z,3.90
2023-05-06T02:21:14.918Z,3.70
2023-05-06T02:23:41.591Z,3.50
2023-05-06T02:26:08.292Z,3.90
2023-05-06T02:28:35.141Z,4.10
2023-05-06T02:31:01.860Z,3.60
2023-05-06T02:33:28.505Z,3.70
2023-05-06T02:35:55.212Z,3.30
2023-05-06T02:38:22.083Z,3.90
2023-05-06T02:40:48.725Z,3.40
2023-05-06T02:43:15.569Z,3.50
2023-05-06T02:45:42.239Z,3.50
2023-05-06T02:48:09.102Z,3.70
2023-05-06T02:50:35.800Z,3.30
2023-05-06T02:53:02.546Z,3.40
2023-05-06T02:55:29.372Z,4.20
2023-05-06T02:57:56.095Z,3.50
2023-05-06T03:00:22.884Z,3.70
2023-05-06T03:02:49.580Z,3.60
2023-05-06T03:05:16.553Z,4.10
2023-05-06T03:07:43.208Z,3.60
2023-05-06T03:10:10.316Z,3.80
2023-05-06T03:12:37.166Z,4.20
2023-05-06T03:15:05.417Z,3.80
2023-05-06T03:17:32.367Z,3.60
2023-05-06T03:19:59.096Z,4.00
2023-05-06T03:22:25.792Z,3.80
2023-05-06T03:24:52.486Z,3.90
2023-05-06T03:27:19.174Z,3.40
2023-05-06T03:29:45.897Z,3.80
2023-05-06T03:32:12.602Z,3.70
2023-05-06T03:34:39.312Z,4.30
2023-05-06T03:37:06.315Z,3.90
2023-05-06T03:39:33.018Z,4.00
2023-05-06T03:41:59.763Z,4.30
2023-05-06T03:44:26.607Z,3.80
2023-05-06T03:46:53.232Z,3.70
2023-05-06T03:49:20.423Z,4.30
2023-05-06T03:51:47.297Z,3.90
2023-05-06T03:54:14.085Z,4.30
2023-05-06T03:56:40.843Z,4.00
2023-05-06T03:59:08.377Z,4.30
2023-05-06T04:01:35.120Z,3.30
2023-05-06T04:04:01.926Z,3.80
2023-05-06T04:06:28.756Z,4.20
2023-05-06T04:08:55.472Z,4.10
2023-05-06T04:11:22.377Z,3.80
2023-05-06T04:13:49.120Z,4.00
2023-05-06T04:16:15.897Z,4.00
2023-05-06T04:18:43.406Z,4.30
2023-05-06T04:21:11.496Z,4.40
2023-05-06T04:23:38.323Z,4.00
2023-05-06T04:26:05.072Z,4.20
2023-05-06T04:28:31.912Z,3.90
2023-05-06T04:30:58.647Z,4.30
2023-05-06T04:33:25.334Z,4.30
2023-05-06T04:35:53.263Z,4.40
2023-05-06T04:38:25.133Z,4.20
2023-05-06T04:40:52.182Z,4.30
2023-05-06T04:43:18.971Z,4.70
2023-05-06T04:45:52.141Z,4.40
2023-05-06T04:48:24.022Z,4.10
2023-05-06T04:50:50.793Z,4.80
2023-05-06T04:53:17.562Z,4.70
2023-05-06T04:55:44.212Z,5.40
2023-05-06T04:58:10.936Z,5.20
2023-05-06T05:00:37.843Z,5.70
2023-05-06T05:03:04.678Z,5.40
2023-05-06T05:05:33.530Z,5.20
2023-05-06T05:08:00.188Z,4.80
2023-05-06T05:10:27.004Z,4.80
2023-05-06T05:12:53.938Z,5.30
2023-05-06T05:15:20.600Z,4.80
2023-05-06T05:17:48.512Z,5.30
2023-05-06T05:20:16.059Z,4.90
2023-05-06T05:22:42.729Z,4.70
2023-05-06T05:25:09.966Z,4.90
2023-05-06T05:27:37.023Z,4.50
2023-05-06T05:30:04.753Z,5.00
2023-05-06T05:32:31.430Z,4.40
2023-05-06T05:34:58.132Z,4.40
2023-05-06T05:37:24.800Z,4.40
2023-05-06T05:39:51.460Z,4.40
2023-05-06T05:42:18.378Z,4.50
2023-05-06T05:44:45.121Z,4.90
2023-05-06T05:47:12.067Z,4.80
2023-05-06T05:49:38.806Z,4.40
2023-05-06T05:52:06.556Z,4.50
2023-05-06T05:54:33.208Z,4.90
2023-05-06T05:57:00.248Z,4.50
2023-05-06T05:59:27.963Z,4.90
2023-05-06T06:01:54.661Z,5.90
2023-05-06T06:04:21.407Z,4.90
2023-05-06T06:06:48.247Z,4.90
2023-05-06T06:09:16.199Z,4.60
2023-05-06T06:11:43.153Z,4.70
2023-05-06T06:14:10.596Z,4.70
2023-05-06T06:16:37.426Z,4.60
2023-05-06T06:19:04.380Z,4.70
2023-05-06T06:21:31.124Z,4.30
2023-05-06T06:23:57.956Z,5.20
2023-05-06T06:26:24.929Z,4.60
2023-05-06T06:28:51.730Z,5.30
2023-05-06T06:31:18.506Z,4.90
2023-05-06T06:33:45.357Z,4.50
2023-05-06T06:36:12.176Z,5.30
2023-05-06T06:38:39.517Z,4.10
2023-05-06T06:41:06.956Z,4.90
2023-05-06T06:43:33.635Z,4.00
2023-05-06T06:46:00.704Z,4.60
2023-05-06T06:48:27.350Z,4.80
2023-05-06T06:50:54.064Z,4.40
2023-05-06T06:53:20.937Z,4.50
2023-05-06T06:55:47.765Z,4.40
2023-05-06T06:58:14.504Z,4.00
2023-05-06T07:00:41.691Z,4.60
2023-05-06T07:03:08.449Z,4.00
2023-05-06T07:05:35.510Z,4.10
2023-05-06T07:08:02.358Z,4.90
2023-05-06T07:10:29.096Z,5.30
2023-05-06T07:12:55.849Z,4.40
2023-05-06T07:15:22.687Z,4.30
2023-05-06T07:17:49.459Z,4.20
2023-05-06T07:20:16.383Z,4.40
2023-05-06T07:22:44.968Z,3.70
2023-05-06T07:25:12.093Z,4.30
2023-05-06T07:27:39.132Z,3.80
2023-05-06T07:30:07.625Z,4.00
2023-05-06T07:32:34.428Z,3.60
2023-05-06T07:35:01.153Z,4.20
2023-05-06T07:37:27.947Z,4.00
2023-05-06T07:39:56.943Z,3.80
2023-05-06T07:42:23.907Z,3.80
2023-05-06T07:44:50.585Z,4.00
2023-05-06T07:47:30.736Z,3.90
2023-05-06T07:49:58.659Z,4.20
2023-05-06T07:52:26.558Z,3.60
2023-05-06T07:54:53.478Z,3.90
2023-05-06T07:57:20.348Z,4.00
2023-05-06T07:59:49.388Z,4.30
2023-05-06T08:02:16.350Z,3.80
2023-05-06T08:04:44.810Z,3.30
2023-05-06T08:07:11.870Z,3.90
2023-05-06T08:09:38.616Z,3.90
2023-05-06T08:12:05.542Z,3.20
2023-05-06T08:14:32.201Z,3.00
2023-05-06T08:16:58.962Z,2.90
2023-05-06T08:19:26.185Z,2.70
2023-05-06T08:21:53.110Z,2.80
2023-05-06T08:24:20.568Z,3.10
2023-05-06T08:26:47.308Z,2.70
2023-05-06T08:29:13.960Z,2.90
2023-05-06T08:31:40.741Z,2.70
2023-05-06T08:34:07.459Z,3.30
2023-05-06T08:36:34.127Z,2.70
2023-05-06T08:39:00.931Z,2.90
2023-05-06T08:41:29.073Z,2.60
2023-05-06T08:43:57.877Z,3.20
2023-05-06T08:46:24.865Z,3.20
2023-05-06T08:48:52.574Z,2.70
2023-05-06T08:51:27.023Z,2.90
2023-05-06T08:53:55.298Z,2.60
2023-05-06T08:56:28.325Z,2.60
2023-05-06T08:58:56.015Z,2.80
2023-05-06T09:01:24.297Z,2.80
2023-05-06T09:03:51.055Z,3.20
2023-05-06T09:06:17.877Z,2.50
2023-05-06T09:08:44.834Z,2.40
2023-05-06T09:11:28.672Z,2.30
2023-05-06T09:14:13.863Z,1.90
2023-05-06T09:16:46.940Z,2.70
2023-05-06T09:19:15.814Z,2.40
2023-05-06T09:21:45.916Z,2.60
2023-05-06T09:24:14.707Z,2.70
2023-05-06T09:26:44.328Z,2.10
2023-05-06T09:29:11.549Z,2.40
2023-05-06T09:31:47.357Z,2.00
2023-05-06T09:34:16.781Z,2.40
2023-05-06T09:36:44.195Z,2.40
2023-05-06T09:39:10.920Z,2.20
2023-05-06T09:41:37.869Z,2.10
2023-05-06T09:44:05.572Z,2.20
2023-05-06T09:46:32.803Z,2.30
2023-05-06T09:49:00.169Z,2.20
2023-05-06T09:51:30.368Z,2.40
2023-05-06T09:53:58.657Z,2.50
2023-05-06T09:56:26.471Z,2.00
2023-05-06T09:58:54.993Z,2.20
2023-05-06T10:01:35.548Z,2.50
2023-05-06T10:04:09.064Z,2.00
2023-05-06T10:06:39.272Z,2.30
2023-05-06T10:09:10.955Z,2.00
2023-05-06T10:11:38.195Z,1.80
2023-05-06T10:14:06.478Z,2.60
2023-05-06T10:16:39.869Z,1.90
2023-05-06T10:19:08.881Z,2.40
2023-05-06T10:21:43.011Z,1.90
2023-05-06T10:24:15.859Z,1.70
2023-05-06T10:26:46.317Z,2.30
2023-05-06T10:29:13.251Z,2.30
2023-05-06T10:31:53.583Z,2.40
2023-05-06T10:34:23.024Z,2.40
2023-05-06T10:36:53.496Z,2.00
2023-05-06T10:39:20.987Z,2.10
2023-05-06T10:41:48.416Z,2.00
2023-05-06T10:44:15.282Z,1.80
2023-05-06T10:46:59.878Z,2.40
2023-05-06T10:49:27.280Z,1.70
2023-05-06T10:52:13.622Z,1.80
2023-05-06T10:54:49.844Z,2.60
2023-05-06T10:57:17.119Z,2.20
2023-05-06T10:59:46.390Z,2.40
2023-05-06T11:02:14.468Z,2.40
2023-05-06T11:04:41.574Z,2.40
2023-05-06T11:07:21.642Z,2.30
2023-05-06T11:10:07.306Z,2.00
2023-05-06T11:12:49.048Z,2.10
2023-05-06T11:15:26.926Z,2.10
2023-05-06T11:17:56.208Z,2.00
2023-05-06T11:20:25.329Z,2.40
2023-05-06T11:22:53.510Z,2.40
2023-05-06T11:25:40.732Z,2.00
2023-05-06T11:28:10.934Z,2.60
2023-05-06T11:30:42.214Z,2.00
2023-05-06T11:33:18.501Z,2.20
2023-05-06T11:35:45.690Z,2.40
2023-05-06T11:38:12.941Z,1.90
2023-05-06T11:40:41.932Z,1.90
2023-05-06T11:43:16.262Z,2.00
2023-05-06T11:45:47.840Z,1.90
2023-05-06T11:48:16.885Z,1.80
2023-05-06T11:50:55.038Z,1.70
2023-05-06T11:53:23.893Z,2.20
2023-05-06T11:55:54.000Z,1.70
2023-05-06T11:58:26.803Z,2.30
2023-05-06T12:01:02.604Z,1.70
2023-05-06T12:03:32.320Z,1.70
2023-05-06T12:05:59.373Z,1.60
2023-05-06T12:08:32.385Z,1.80
2023-05-06T12:11:02.616Z,1.80
2023-05-06T12:13:30.101Z,1.90
2023-05-06T12:15:59.312Z,1.70
2023-05-06T12:18:27.292Z,1.80
2023-05-06T12:21:02.075Z,1.80
2023-05-06T12:23:28.821Z,1.40
2023-05-06T12:26:04.695Z,1.90
2023-05-06T12:28:34.780Z,1.60
2023-05-06T12:31:28.045Z,1.80
2023-05-06T12:33:56.672Z,1.50
2023-05-06T12:36:24.276Z,1.50
2023-05-06T12:38:53.029Z,1.40
2023-05-06T12:41:20.821Z,1.80
2023-05-06T12:43:47.708Z,1.90
2023-05-06T12:46:16.322Z,1.50
2023-05-06T12:49:02.816Z,1.60
2023-05-06T12:51:30.516Z,1.60
2023-05-06T12:53:57.439Z,1.60
2023-05-06T12:56:24.518Z,1.30
2023-05-06T12:59:01.251Z,1.60
2023-05-06T13:01:28.109Z,1.60
2023-05-06T13:03:57.922Z,1.60
2023-05-06T13:06:24.666Z,1.50
2023-05-06T13:08:51.622Z,1.60
2023-05-06T13:11:18.461Z,2.00
2023-05-06T13:13:45.324Z,1.50
2023-05-06T13:16:12.086Z,1.70
2023-05-06T13:18:38.820Z,1.60
2023-05-06T13:21:06.179Z,1.50
2023-05-06T13:23:34.436Z,1.90
2023-05-06T13:26:05.579Z,1.60
2023-05-06T13:28:34.763Z,1.50
2023-05-06T13:31:01.517Z,1.70
2023-05-06T13:33:28.291Z,1.50
2023-05-06T13:35:55.172Z,1.20
2023-05-06T13:38:21.942Z,1.20
2023-05-06T13:40:51.220Z,1.60
2023-05-06T13:43:24.012Z,1.50
2023-05-06T13:45:51.036Z,1.30
2023-05-06T13:48:17.658Z,1.30
2023-05-06T13:50:45.861Z,1.40
2023-05-06T13:53:14.225Z,1.60
2023-05-06T13:55:42.202Z,1.30
2023-05-06T13:58:09.045Z,1.30
2023-05-06T14:00:35.864Z,1.40
2023-05-06T14:03:03.033Z,1.30
2023-05-06T14:05:30.119Z,1.70
2023-05-06T14:07:57.019Z,1.40
2023-05-06T14:10:23.939Z,1.80
2023-05-06T14:12:51.416Z,1.70
2023-05-06T14:15:18.328Z,3.60
2023-05-06T14:17:45.164Z,1.60
2023-05-06T14:20:11.983Z,1.50
2023-05-06T14:22:41.043Z,1.80
2023-05-06T14:25:09.019Z,1.70
2023-05-06T14:27:36.242Z,2.20
2023-05-06T14:30:05.924Z,3.10
2023-05-06T14:32:35.234Z,2.70
2023-05-06T14:35:02.240Z,2.40
2023-05-06T14:37:29.217Z,2.00
2023-05-06T14:39:57.232Z,1.90
2023-05-06T14:42:24.083Z,1.90
2023-05-06T14:44:50.836Z,1.80
2023-05-06T14:47:17.516Z,1.60
2023-05-06T14:49:44.256Z,1.90
2023-05-06T14:52:10.921Z,1.40
2023-05-06T14:54:42.033Z,1.30
2023-05-06T14:57:09.951Z,1.60
2023-05-06T14:59:38.255Z,1.60
2023-05-06T15:02:08.354Z,1.30
2023-05-06T15:04:36.188Z,1.30
2023-05-06T15:07:04.640Z,1.50
2023-05-06T15:09:31.482Z,1.70
2023-05-06T15:11:58.520Z,1.60
2023-05-06T15:14:25.762Z,1.50
2023-05-06T15:16:56.622Z,1.70
2023-05-06T15:21:50.755Z,1.50
2023-05-06T15:24:17.437Z,1.40
2023-05-06T15:26:44.242Z,1.70
2023-05-06T15:29:11.063Z,1.60
2023-05-06T15:31:40.146Z,1.40
2023-05-06T15:34:10.589Z,1.80
2023-05-06T15:36:39.069Z,1.60
2023-05-06T15:39:05.739Z,1.80
2023-05-06T15:41:35.933Z,1.40
2023-05-06T15:44:05.890Z,1.40
2023-05-06T15:46:33.309Z,1.60
2023-05-06T15:49:17.813Z,1.50
2023-05-06T15:51:46.789Z,1.70
2023-05-06T15:54:17.749Z,1.50
2023-05-06T15:59:12.384Z,1.70
2023-05-06T16:04:09.102Z,1.60
2023-05-06T16:06:36.019Z,1.40
2023-05-06T16:09:02.792Z,1.40
2023-05-06T16:11:29.485Z,1.50
2023-05-06T16:13:56.155Z,1.40
2023-05-06T16:16:22.858Z,1.20
2023-05-06T16:18:49.685Z,1.80
2023-05-06T16:21:16.435Z,1.70
2023-05-06T16:23:43.106Z,1.90
2023-05-06T16:26:10.346Z,2.00
2023-05-06T16:28:38.744Z,1.40
2023-05-06T16:31:07.128Z,1.50
2023-05-06T16:33:33.999Z,1.90
2023-05-06T16:36:00.862Z,1.90
2023-05-06T16:38:27.780Z,1.50
2023-05-06T16:40:54.550Z,1.60
2023-05-06T16:43:21.373Z,1.50
2023-05-06T16:45:48.253Z,1.50
2023-05-06T16:48:15.826Z,1.60
2023-05-06T16:50:42.834Z,1.60
2023-05-06T16:53:10.274Z,2.00
2023-05-06T16:55:37.104Z,2.10
2023-05-06T16:58:04.237Z,2.30
2023-05-06T17:00:31.534Z,2.40
2023-05-06T17:02:58.341Z,2.20
2023-05-06T17:05:27.479Z,2.10
2023-05-06T17:07:54.100Z,2.40
2023-05-06T17:10:21.368Z,2.40
2023-05-06T17:12:48.163Z,2.70
2023-05-06T17:15:24.255Z,2.20
2023-05-06T17:17:52.290Z,2.40
2023-05-06T17:20:20.123Z,2.50
2023-05-06T17:22:47.888Z,2.10
2023-05-06T17:25:15.738Z,2.10
2023-05-06T17:27:44.187Z,2.20
2023-05-06T17:30:12.484Z,2.60
2023-05-06T17:32:41.430Z,2.50
2023-05-06T17:35:09.845Z,2.30
2023-05-06T17:37:37.474Z,2.70
2023-05-06T17:40:07.070Z,2.40
2023-05-06T17:42:35.186Z,2.50
2023-05-06T17:45:02.576Z,2.50
2023-05-06T17:47:30.390Z,3.50
2023-05-06T17:49:58.073Z,2.70
2023-05-06T17:52:26.656Z,3.00
2023-05-06T17:55:10.784Z,3.00
2023-05-06T17:57:41.993Z,2.70
2023-05-06T18:00:13.493Z,2.30
2023-05-06T18:02:42.361Z,2.40
2023-05-06T18:05:10.248Z,2.30
2023-05-06T18:07:37.978Z,2.10
2023-05-06T18:10:07.298Z,2.40
2023-05-06T18:12:35.132Z,2.40
2023-05-06T18:15:02.749Z,3.00
2023-05-06T18:17:30.242Z,2.70
2023-05-06T18:19:57.635Z,2.90
2023-05-06T18:22:25.038Z,6.90
2023-05-06T18:24:55.557Z,3.30
2023-05-06T18:27:23.414Z,2.50
2023-05-06T18:29:51.788Z,2.70
2023-05-06T18:32:19.136Z,2.40
2023-05-06T18:34:46.732Z,2.90
2023-05-06T18:37:14.169Z,2.40
2023-05-06T18:39:42.801Z,2.60
2023-05-06T18:42:10.157Z,2.90
2023-05-06T18:44:38.136Z,3.10
2023-05-06T18:47:05.728Z,3.00
2023-05-06T18:49:33.371Z,2.90
2023-05-06T18:52:02.363Z,2.80
2023-05-06T18:54:29.757Z,3.10
2023-05-06T18:56:58.614Z,3.20
2023-05-06T18:59:26.649Z,3.30
2023-05-06T19:01:54.148Z,3.00
2023-05-06T19:04:21.620Z,3.30
2023-05-06T19:06:49.256Z,3.10
2023-05-06T19:09:16.774Z,3.10
2023-05-06T19:11:44.375Z,3.10
2023-05-06T19:14:11.849Z,4.20
2023-05-06T19:16:39.369Z,3.10
2023-05-06T19:19:07.587Z,4.20
2023-05-06T19:21:36.125Z,3.90
2023-05-06T19:24:04.632Z,4.10
2023-05-06T19:26:32.295Z,3.50
2023-05-06T19:28:59.794Z,4.10
2023-05-06T19:31:27.162Z,4.00
2023-05-06T19:33:54.765Z,3.90
2023-05-06T19:36:22.230Z,3.50
2023-05-06T19:38:49.679Z,3.60
2023-05-06T19:41:17.137Z,3.60
2023-05-06T19:43:45.263Z,3.90
2023-05-06T19:46:13.012Z,3.20
2023-05-06T19:48:40.650Z,3.70
2023-05-06T19:51:08.900Z,3.30
2023-05-06T19:53:36.781Z,3.50
2023-05-06T19:56:12.892Z,3.90
2023-05-06T19:58:40.687Z,4.20
2023-05-06T20:01:09.030Z,3.90
2023-05-06T20:03:36.714Z,4.10
2023-05-06T20:06:04.551Z,3.70
2023-05-06T20:08:32.170Z,4.10
2023-05-06T20:10:59.629Z,4.40
2023-05-06T20:13:27.242Z,4.00
2023-05-06T20:15:55.053Z,3.70
2023-05-06T20:18:22.902Z,3.80
2023-05-06T20:20:50.640Z,4.40
2023-05-06T20:23:18.018Z,5.00
2023-05-06T20:25:45.484Z,3.90
2023-05-06T20:28:12.928Z,4.20
2023-05-06T20:30:40.363Z,4.00
2023-05-06T20:33:08.029Z,4.00
2023-05-06T20:35:38.606Z,4.50
2023-05-06T20:38:06.982Z,4.70
2023-05-06T20:40:35.958Z,4.30
2023-05-06T20:43:03.732Z,4.30
2023-05-06T20:45:31.570Z,4.70
2023-05-06T20:47:59.202Z,4.30
2023-05-06T20:50:28.692Z,4.60
2023-05-06T20:52:57.041Z,4.20
2023-05-06T20:55:26.029Z,4.40
2023-05-06T20:57:53.580Z,4.40
2023-05-06T21:00:21.639Z,4.10
2023-05-06T21:02:49.414Z,3.50
2023-05-06T21:05:17.283Z,3.70
2023-05-06T21:07:45.550Z,3.90
2023-05-06T21:10:13.100Z,3.50
2023-05-06T21:12:47.791Z,3.80
2023-05-06T21:15:15.342Z,3.70
2023-05-06T21:17:43.186Z,3.30
2023-05-06T21:20:11.941Z,3.50
2023-05-06T21:22:39.340Z,3.70
2023-05-06T21:25:08.521Z,4.30
2023-05-06T21:27:36.363Z,3.60
2023-05-06T21:30:04.583Z,3.60
2023-05-06T21:32:33.338Z,3.40
2023-05-06T21:35:02.737Z,3.70
2023-05-06T21:37:30.386Z,4.00
2023-05-06T21:39:57.849Z,3.30
2023-05-06T21:42:25.507Z,3.30
2023-05-06T21:44:52.866Z,3.50
2023-05-06T21:47:20.262Z,3.60
2023-05-06T21:49:47.714Z,4.10
2023-05-06T21:52:15.237Z,3.50
2023-05-06T21:54:46.687Z,4.00
2023-05-06T21:57:14.151Z,3.60
2023-05-06T21:59:41.602Z,4.20
2023-05-06T22:02:09.119Z,3.60
2023-05-06T22:04:36.663Z,3.90
2023-05-06T22:07:04.167Z,4.20
2023-05-06T22:09:31.594Z,4.30
2023-05-06T22:11:59.024Z,3.70
2023-05-06T22:14:30.259Z,3.80
2023-05-06T22:17:08.060Z,3.80
2023-05-06T22:19:35.497Z,4.10
2023-05-06T22:22:03.663Z,4.40
2023-05-06T22:24:31.070Z,4.00
2023-05-06T22:26:58.459Z,4.30
2023-05-06T22:29:26.329Z,4.20
2023-05-06T22:31:53.843Z,4.50
2023-05-06T22:34:21.340Z,4.00
2023-05-06T22:36:48.822Z,4.50
2023-05-06T22:39:16.422Z,2.80
2023-05-06T22:41:44.709Z,1.60
2023-05-06T22:44:13.833Z,1.70
2023-05-06T22:46:41.405Z,1.90
2023-05-06T22:49:09.151Z,2.30
2023-05-06T22:51:36.944Z,1.50
2023-05-06T22:54:05.052Z,1.70
2023-05-06T22:56:32.385Z,1.80
2023-05-06T22:58:59.900Z,1.80
2023-05-06T23:01:32.206Z,1.50
2023-05-06T23:04:00.601Z,1.70
2023-05-06T23:06:28.384Z,2.10
2023-05-06T23:08:55.765Z,1.40
2023-05-06T23:11:23.333Z,1.50
2023-05-06T23:13:51.009Z,1.50
2023-05-06T23:16:18.451Z,1.60
2023-05-06T23:18:46.301Z,1.70
2023-05-06T23:21:13.762Z,1.60
2023-05-06T23:23:41.514Z,1.90
2023-05-06T23:26:09.007Z,2.00
2023-05-06T23:28:36.730Z,2.00
2023-05-06T23:31:04.259Z,1.60
2023-05-06T23:33:31.791Z,2.10
2023-05-06T23:36:00.768Z,1.70
2023-05-06T23:38:29.131Z,1.80
2023-05-06T23:40:56.672Z,2.00
2023-05-06T23:43:24.101Z,1.80
2023-05-06T23:45:51.748Z,1.90
2023-05-06T23:48:19.187Z,1.70
2023-05-06T23:50:46.600Z,2.10
2023-05-06T23:53:14.184Z,2.20
2023-05-06T23:55:42.997Z,2.60
2023-05-06T23:58:10.531Z,2.50
